Skip to main content.
 TIME   TEMPERATURE   WINDSPEED   DIRECTION   HUMIDITY   BAROMETER   RAINFALL 
3:00 11.0°C (51.8°F) 14.8 kmh (9.2 mph) N 81% 1023.0hPa (30.21 inHg) 0.0mm (0.00 in.)
2:00 10.0°C (50.0 °F) 20.4 kmh (12.7 mph) NNW 81% 1023.0hPa (30.21 inHg) 0.0mm (0.00 in.)
1:00 11.0°C (51.8 °F) 16.7 kmh (10.4 mph) NNW 76% 1024.0hPa (30.24 inHg) 0.0mm (0.00 in.)
0:00 11.0°C (51.8 °F) 18.5 kmh (11.5 mph) N 76% 1024.0hPa (30.24 inHg) 0.0mm (0.00 in.)
23:00 11.0°C (51.8 °F) 20.4 kmh (12.7 mph) NNW 76% 1024.0hPa (30.24 inHg) 0.0mm (0.00 in.)
22:00 12.0°C (53.6 °F) 13.0 kmh (8.1 mph) N 71% 1024.0hPa (30.24 inHg) 0.0mm (0.00 in.)
21:00 12.0°C (53.6 °F) 16.7 kmh (10.4 mph) NNW 76% 1024.0hPa (30.24 inHg) 0.0mm (0.00 in.)
20:00 12.0°C (53.6 °F) 27.8 kmh (17.3 mph) N 76% 1024.0hPa (30.24 inHg) 0.0mm (0.00 in.)
19:00 12.0°C (53.6 °F) 25.9 kmh (16.1 mph) NNW 81% 1024.0hPa (30.24 inHg) 0.0mm (0.00 in.)
18:00 13.0°C (55.4 °F) 22.2 kmh (13.8 mph) NNW 76% 1024.0hPa (30.24 inHg) 0.0mm (0.00 in.)
17:00 14.0°C (57.2 °F) 29.6 kmh (18.4 mph) N 76% 1024.0hPa (30.24 inHg) 0.0mm (0.00 in.)
16:00 14.0°C (57.2 °F) 20.4 kmh (12.7 mph) NW 76% 1024.0hPa (30.24 inHg) 0.0mm (0.00 in.)
15:00 15.0°C (59.0 °F) 22.2 kmh (13.8 mph) NNW 67% 1024.0hPa (30.24 inHg) 0.0mm (0.00 in.)
14:00 16.0°C (60.8 °F) 24.1 kmh (15.0 mph) NNW 63% 1024.0hPa (30.24 inHg) 0.0mm (0.00 in.)
13:00 15.0°C (59.0 °F) 25.9 kmh (16.1 mph) N 62% 1025.1hPa (30.27 inHg) 0.0mm (0.00 in.)
12:00 15.0°C (59.0 °F) 25.9 kmh (16.1 mph) N 58% 1026.1hPa (30.30 inHg) 0.0mm (0.00 in.)
11:00 14.0°C (57.2 °F) 25.9 kmh (16.1 mph) N 62% 1027.1hPa (30.33 inHg) 0.0mm (0.00 in.)
10:00 14.0°C (57.2 °F) 16.7 kmh (10.4 mph) N 62% 1027.1hPa (30.33 inHg) 0.0mm (0.00 in.)
9:00 13.0°C (55.4 °F) 13.0 kmh (8.1 mph) NNW 66% 1026.1hPa (30.30 inHg) 0.0mm (0.00 in.)
8:00 12.0°C (53.6 °F) 14.8 kmh (9.2 mph) N 66% 1026.1hPa (30.30 inHg) 0.0mm (0.00 in.)
7:00 11.0°C (51.8 °F) 13.0 kmh (8.1 mph) NNW 71% 1026.1hPa (30.30 inHg) 0.0mm (0.00 in.)
6:00 11.0°C (51.8 °F) 13.0 kmh (8.1 mph) NNW 76% 1025.1hPa (30.27 inHg) 0.0mm (0.00 in.)
5:00 11.0°C (51.8 °F) 16.7 kmh (10.4 mph) NNW 76% 1025.1hPa (30.27 inHg) 0.0mm (0.00 in.)
4:00 11.0°C (51.8 °F) 13.0 kmh (8.1 mph) NNW 76% 1026.1hPa (30.30 inHg) 0.0mm (0.00 in.)